createdAt,value
2019-05-29T00:00:40.840Z,18.7
2019-05-29T00:01:42.208Z,18.7
2019-05-29T00:02:43.485Z,18.7
2019-05-29T00:03:44.864Z,18.7
2019-05-29T00:04:46.148Z,18.7
2019-05-29T00:05:47.500Z,18.7
2019-05-29T00:06:48.787Z,18.7
2019-05-29T00:07:50.110Z,18.7
2019-05-29T00:08:51.436Z,18.7
2019-05-29T00:09:52.734Z,18.7
2019-05-29T00:10:54.103Z,18.7
2019-05-29T00:11:55.403Z,18.6
2019-05-29T00:12:56.684Z,18.6
2019-05-29T00:13:57.985Z,18.6
2019-05-29T00:14:59.292Z,18.6
2019-05-29T00:16:00.647Z,18.6
2019-05-29T00:17:01.960Z,18.6
2019-05-29T00:18:03.280Z,18.6
2019-05-29T00:19:04.570Z,18.6
2019-05-29T00:20:08.275Z,18.6
2019-05-29T00:21:11.512Z,18.6
2019-05-29T00:22:14.453Z,18.6
2019-05-29T00:23:15.886Z,18.6
2019-05-29T00:24:17.190Z,18.6
2019-05-29T00:25:18.839Z,18.6
2019-05-29T00:26:20.288Z,18.6
2019-05-29T00:27:23.815Z,18.5
2019-05-29T00:28:25.105Z,18.5
2019-05-29T00:29:26.392Z,18.5
2019-05-29T00:30:27.680Z,18.5
2019-05-29T00:31:29.012Z,18.5
2019-05-29T00:32:30.305Z,18.5
2019-05-29T00:33:31.601Z,18.5
2019-05-29T00:34:32.985Z,18.5
2019-05-29T00:35:34.263Z,18.5
2019-05-29T00:36:35.619Z,18.5
2019-05-29T00:37:36.923Z,18.5
2019-05-29T00:38:38.217Z,18.5
2019-05-29T00:39:42.541Z,18.5
2019-05-29T00:40:43.853Z,18.5
2019-05-29T00:41:45.193Z,18.5
2019-05-29T00:42:46.552Z,18.5
2019-05-29T00:43:47.841Z,18.5
2019-05-29T00:44:49.148Z,18.5
2019-05-29T00:45:50.462Z,18.5
2019-05-29T00:46:51.800Z,18.5
2019-05-29T00:47:53.102Z,18.4
2019-05-29T00:48:54.430Z,18.4
2019-05-29T00:49:55.858Z,18.4
2019-05-29T00:50:57.580Z,18.4
2019-05-29T00:51:59.070Z,18.4
2019-05-29T00:53:00.664Z,18.4
2019-05-29T00:54:02.093Z,18.4
2019-05-29T00:55:03.441Z,18.4
2019-05-29T00:56:04.803Z,18.4
2019-05-29T00:57:06.478Z,18.4
2019-05-29T00:58:09.373Z,18.4
2019-05-29T00:59:11.479Z,18.4
2019-05-29T01:00:13.766Z,18.4
2019-05-29T01:01:16.023Z,18.4
2019-05-29T01:02:18.316Z,18.4
2019-05-29T01:03:20.522Z,18.4
2019-05-29T01:04:21.803Z,18.4
2019-05-29T01:05:23.108Z,18.4
2019-05-29T01:06:24.415Z,18.3
2019-05-29T01:07:25.761Z,18.3
2019-05-29T01:08:27.117Z,18.3
2019-05-29T01:09:28.625Z,18.3
2019-05-29T01:10:30.139Z,18.3
2019-05-29T01:11:31.703Z,18.3
2019-05-29T01:12:33.017Z,18.3
2019-05-29T01:13:34.343Z,18.3
2019-05-29T01:14:49.131Z,18.3
2019-05-29T01:15:51.419Z,18.3
2019-05-29T01:16:52.727Z,18.3
2019-05-29T01:17:54.174Z,18.3
2019-05-29T01:18:55.587Z,18.3
2019-05-29T01:19:56.924Z,18.2
2019-05-29T01:21:01.532Z,18.3
2019-05-29T01:22:02.851Z,18.2
2019-05-29T01:23:04.194Z,18.2
2019-05-29T01:24:05.810Z,18.2
2019-05-29T01:25:07.122Z,18.2
2019-05-29T01:26:08.476Z,18.2
2019-05-29T01:27:16.535Z,18.2
2019-05-29T01:28:20.985Z,18.2
2019-05-29T01:29:25.440Z,18.2
2019-05-29T01:30:26.799Z,18.2
2019-05-29T01:31:28.328Z,18.2
2019-05-29T01:32:29.625Z,18.2
2019-05-29T01:33:32.291Z,18.2
2019-05-29T01:34:33.599Z,18.2
2019-05-29T01:35:37.380Z,18.2
2019-05-29T01:36:38.677Z,18.1
2019-05-29T01:37:40.060Z,18.2
2019-05-29T01:38:41.433Z,18.2
2019-05-29T01:39:42.987Z,18.1
2019-05-29T01:40:44.295Z,18.1
2019-05-29T01:41:45.623Z,18.1
2019-05-29T01:42:49.862Z,18.1
2019-05-29T01:43:51.503Z,18.1
2019-05-29T01:45:06.921Z,18.1
2019-05-29T01:46:09.555Z,18.1
2019-05-29T01:47:10.963Z,18.1
2019-05-29T01:48:12.302Z,18.1
2019-05-29T01:49:13.648Z,18.1
2019-05-29T01:50:17.662Z,18.1
2019-05-29T01:51:20.231Z,18.1
2019-05-29T01:52:23.715Z,18.1
2019-05-29T01:53:25.525Z,18.1
2019-05-29T01:54:27.946Z,18.1
2019-05-29T01:55:29.481Z,18.1
2019-05-29T01:56:30.755Z,18
2019-05-29T01:57:33.427Z,18
2019-05-29T01:58:35.472Z,18
2019-05-29T01:59:36.794Z,18
2019-05-29T02:00:38.185Z,18
2019-05-29T02:01:42.319Z,18
2019-05-29T02:02:43.612Z,18
2019-05-29T02:03:44.972Z,18
2019-05-29T02:04:46.297Z,18
2019-05-29T02:05:47.591Z,18
2019-05-29T02:06:48.876Z,18
2019-05-29T02:07:50.237Z,18
2019-05-29T02:08:51.933Z,18
2019-05-29T02:09:53.247Z,18
2019-05-29T02:10:54.785Z,17.9
2019-05-29T02:11:56.105Z,17.9
2019-05-29T02:12:57.373Z,18
2019-05-29T02:13:58.647Z,18
2019-05-29T02:14:59.988Z,18
2019-05-29T02:16:01.286Z,17.9
2019-05-29T02:17:02.581Z,17.9
2019-05-29T02:18:03.881Z,17.9
2019-05-29T02:19:05.161Z,17.9
2019-05-29T02:20:06.491Z,17.9
2019-05-29T02:21:07.782Z,17.9
2019-05-29T02:22:09.097Z,17.8
2019-05-29T02:23:10.445Z,17.9
2019-05-29T02:24:11.771Z,17.9
2019-05-29T02:25:15.898Z,17.8
2019-05-29T02:26:20.364Z,17.8
2019-05-29T02:27:23.473Z,17.8
2019-05-29T02:28:26.783Z,17.8
2019-05-29T02:29:28.788Z,17.8
2019-05-29T02:30:30.709Z,17.8
2019-05-29T02:31:32.315Z,17.8
2019-05-29T02:32:33.613Z,17.8
2019-05-29T02:33:34.898Z,17.8
2019-05-29T02:34:36.238Z,17.8
2019-05-29T02:35:37.553Z,17.8
2019-05-29T02:36:38.918Z,17.7
2019-05-29T02:37:40.209Z,17.7
2019-05-29T02:38:41.549Z,17.7
2019-05-29T02:39:42.953Z,17.7
2019-05-29T02:40:44.313Z,17.7
2019-05-29T02:41:45.906Z,17.7
2019-05-29T02:42:47.187Z,17.7
2019-05-29T02:43:48.511Z,17.7
2019-05-29T02:44:49.849Z,17.7
2019-05-29T02:45:54.541Z,17.7
2019-05-29T02:46:56.189Z,17.7
2019-05-29T02:47:57.477Z,17.7
2019-05-29T02:48:58.771Z,17.6
2019-05-29T02:50:00.039Z,17.6
2019-05-29T02:51:01.392Z,17.6
2019-05-29T02:52:02.834Z,17.6
2019-05-29T02:53:04.243Z,17.6
2019-05-29T02:54:05.927Z,17.6
2019-05-29T02:55:07.253Z,17.6
2019-05-29T02:56:08.589Z,17.6
2019-05-29T02:57:09.898Z,17.6
2019-05-29T02:58:11.247Z,17.6
2019-05-29T02:59:12.603Z,17.6
2019-05-29T03:00:13.911Z,17.5
2019-05-29T03:01:15.285Z,17.5
2019-05-29T03:02:18.099Z,17.5
2019-05-29T03:03:19.397Z,17.5
2019-05-29T03:04:23.463Z,17.5
2019-05-29T03:05:28.052Z,17.5
2019-05-29T03:06:32.169Z,17.5
2019-05-29T03:07:33.681Z,17.5
2019-05-29T03:08:35.040Z,17.5
2019-05-29T03:09:36.369Z,17.5
2019-05-29T03:10:37.745Z,17.5
2019-05-29T03:11:39.082Z,17.5
2019-05-29T03:12:40.366Z,17.5
2019-05-29T03:13:41.684Z,17.5
2019-05-29T03:14:42.967Z,17.5
2019-05-29T03:15:44.337Z,17.5
2019-05-29T03:16:45.624Z,17.5
2019-05-29T03:17:46.934Z,17.4
2019-05-29T03:18:48.226Z,17.5
2019-05-29T03:19:49.550Z,17.5
2019-05-29T03:20:50.847Z,17.5
2019-05-29T03:21:52.193Z,17.4
2019-05-29T03:22:53.491Z,17.4
2019-05-29T03:23:54.762Z,17.4
2019-05-29T03:24:56.029Z,17.4
2019-05-29T03:25:57.343Z,17.3
2019-05-29T03:26:58.697Z,17.3
2019-05-29T03:27:59.986Z,17.4
2019-05-29T03:29:01.292Z,17.4
2019-05-29T03:30:02.629Z,17.4
2019-05-29T03:31:03.929Z,17.4
2019-05-29T03:32:05.394Z,17.3
2019-05-29T03:33:14.356Z,17.3
2019-05-29T03:34:15.719Z,17.3
2019-05-29T03:35:17.056Z,17.3
2019-05-29T03:36:21.448Z,17.3
2019-05-29T03:37:23.027Z,17.3
2019-05-29T03:38:25.683Z,17.3
2019-05-29T03:39:30.255Z,17.3
2019-05-29T03:40:34.602Z,17.3
2019-05-29T03:41:36.532Z,17.2
2019-05-29T03:42:40.211Z,17.3
2019-05-29T03:43:41.496Z,17.3
2019-05-29T03:44:42.818Z,17.2
2019-05-29T03:45:44.382Z,17.3
2019-05-29T03:46:46.338Z,17.2
2019-05-29T03:47:47.835Z,17.3
2019-05-29T03:48:49.137Z,17.3
2019-05-29T03:49:50.439Z,17.2
2019-05-29T03:50:51.746Z,17.2
2019-05-29T03:51:53.059Z,17.2
2019-05-29T03:52:54.385Z,17.2
2019-05-29T03:53:55.753Z,17.2
2019-05-29T03:54:57.063Z,17.2
2019-05-29T03:55:58.484Z,17.2
2019-05-29T03:57:02.954Z,17.2
2019-05-29T03:58:04.294Z,17.2
2019-05-29T03:59:05.621Z,17.2
2019-05-29T04:00:06.906Z,17.2
2019-05-29T04:01:08.317Z,17.2
2019-05-29T04:02:09.890Z,17.2
2019-05-29T04:03:11.263Z,17.2
2019-05-29T04:04:12.563Z,17.2
2019-05-29T04:05:13.886Z,17.2
2019-05-29T04:06:15.187Z,17.2
2019-05-29T04:07:16.530Z,17.2
2019-05-29T04:08:17.864Z,17.2
2019-05-29T04:09:19.153Z,17.2
2019-05-29T04:10:20.478Z,17.2
2019-05-29T04:11:21.782Z,17.2
2019-05-29T04:12:23.077Z,17.2
2019-05-29T04:13:24.425Z,17.2
2019-05-29T04:14:27.324Z,17.2
2019-05-29T04:15:31.588Z,17.2
2019-05-29T04:16:51.996Z,17.2
2019-05-29T04:18:00.959Z,17.4
2019-05-29T04:19:02.736Z,17.4
2019-05-29T04:20:04.050Z,17.4
2019-05-29T04:21:05.324Z,17.4
2019-05-29T04:22:06.648Z,17.5
2019-05-29T04:23:07.965Z,17.5
2019-05-29T04:24:09.323Z,17.5
2019-05-29T04:25:10.682Z,17.5
2019-05-29T04:26:12.006Z,17.5
2019-05-29T04:27:13.316Z,17.6
2019-05-29T04:28:14.622Z,17.6
2019-05-29T04:29:16.007Z,17.6
2019-05-29T04:30:19.264Z,17.6
2019-05-29T04:31:21.034Z,17.7
2019-05-29T04:32:22.378Z,17.7
2019-05-29T04:33:23.718Z,17.7
2019-05-29T04:34:25.053Z,17.8
2019-05-29T04:35:26.411Z,17.8
2019-05-29T04:36:30.499Z,17.8
2019-05-29T04:37:36.871Z,17.9
2019-05-29T04:38:40.905Z,17.9
2019-05-29T04:39:42.299Z,18
2019-05-29T04:40:43.643Z,18
2019-05-29T04:41:44.923Z,18
2019-05-29T04:42:46.337Z,18.1
2019-05-29T04:43:50.095Z,18.1
2019-05-29T04:44:51.839Z,18.2
2019-05-29T04:45:53.174Z,18.3
2019-05-29T04:47:09.890Z,18.3
2019-05-29T04:48:13.315Z,18.4
2019-05-29T04:49:14.646Z,18.5
2019-05-29T04:50:20.755Z,18.5
2019-05-29T04:51:22.304Z,18.5
2019-05-29T04:52:23.652Z,18.6
2019-05-29T04:53:25.291Z,18.7
2019-05-29T04:54:26.608Z,18.8
2019-05-29T04:55:30.682Z,18.9
2019-05-29T04:56:33.350Z,19
2019-05-29T04:57:35.625Z,19
2019-05-29T04:58:38.757Z,19
2019-05-29T04:59:40.368Z,19.2
2019-05-29T05:00:56.021Z,19.3
2019-05-29T05:02:00.574Z,19.4
2019-05-29T05:03:04.204Z,19.5
2019-05-29T05:04:05.521Z,19.5
2019-05-29T05:05:06.816Z,19.6
2019-05-29T05:06:08.127Z,19.7
2019-05-29T05:07:09.539Z,19.8
2019-05-29T05:08:10.962Z,19.9
2019-05-29T05:09:12.300Z,20
2019-05-29T05:10:13.598Z,20.1
2019-05-29T05:11:14.910Z,20.1
2019-05-29T05:12:16.202Z,20.2
2019-05-29T05:13:20.394Z,20.3
2019-05-29T05:14:21.680Z,20.4
2019-05-29T05:15:22.986Z,20.5
2019-05-29T05:16:24.413Z,20.3
2019-05-29T05:17:26.619Z,20.7
2019-05-29T05:18:28.112Z,20.8
2019-05-29T05:19:31.742Z,20.9
2019-05-29T05:20:34.536Z,21
2019-05-29T05:21:38.065Z,21.1
2019-05-29T05:22:41.096Z,21.2
2019-05-29T05:23:42.479Z,21.2
2019-05-29T05:24:44.111Z,21.3
2019-05-29T05:25:45.631Z,21.4
2019-05-29T05:26:48.241Z,21.5
2019-05-29T05:27:50.035Z,21.6
2019-05-29T05:28:52.682Z,21.6
2019-05-29T05:29:54.089Z,21.7
2019-05-29T05:30:55.406Z,21.8
2019-05-29T05:31:56.781Z,21.9
2019-05-29T05:32:58.068Z,22
2019-05-29T05:33:59.407Z,22
2019-05-29T05:35:00.927Z,21.9
2019-05-29T05:36:02.338Z,22.2
2019-05-29T05:37:03.686Z,22.2
2019-05-29T05:38:05.019Z,22.3
2019-05-29T05:39:06.315Z,22.4
2019-05-29T05:40:07.827Z,22.5
2019-05-29T05:41:09.185Z,22.6
2019-05-29T05:42:10.556Z,22.6
2019-05-29T05:43:23.426Z,22.7
2019-05-29T05:44:25.523Z,22.8
2019-05-29T05:45:30.854Z,22.9
2019-05-29T05:46:36.834Z,23
2019-05-29T05:47:53.396Z,23.1
2019-05-29T05:48:58.798Z,23.2
2019-05-29T05:50:02.492Z,23.3
2019-05-29T05:51:03.968Z,23.3
2019-05-29T05:52:05.312Z,23.4
2019-05-29T05:53:06.647Z,23.5
2019-05-29T05:54:08.002Z,23.5
2019-05-29T05:55:09.533Z,23.6
2019-05-29T05:56:10.965Z,23.7
2019-05-29T05:57:12.275Z,23.8
2019-05-29T05:58:13.629Z,23.9
2019-05-29T05:59:14.949Z,24
2019-05-29T06:00:16.269Z,24
2019-05-29T06:01:17.595Z,24.1
2019-05-29T06:02:18.900Z,24.2
2019-05-29T06:03:20.231Z,24.2
2019-05-29T06:04:21.559Z,24.3
2019-05-29T06:05:22.827Z,24.4
2019-05-29T06:06:24.138Z,24.4
2019-05-29T06:07:25.459Z,24.5
2019-05-29T06:08:26.907Z,24.6
2019-05-29T06:09:28.353Z,24.6
2019-05-29T06:10:29.664Z,24.7
2019-05-29T06:11:32.757Z,24.7
2019-05-29T06:12:34.879Z,24.8
2019-05-29T06:13:40.466Z,24.9
2019-05-29T06:14:43.381Z,25
2019-05-29T06:15:44.777Z,25.1
2019-05-29T06:16:46.225Z,25.1
2019-05-29T06:18:04.997Z,25.2
2019-05-29T06:19:18.091Z,25.3
2019-05-29T06:20:19.357Z,25.4
2019-05-29T06:22:39.319Z,25.5
2019-05-29T06:23:42.918Z,25.5
2019-05-29T06:24:44.824Z,25.6
2019-05-29T06:25:46.491Z,25.6
2019-05-29T06:26:47.817Z,25.7
2019-05-29T06:27:49.103Z,25.7
2019-05-29T06:28:52.235Z,25.8
2019-05-29T06:29:54.649Z,25.9
2019-05-29T06:30:56.363Z,25.9
2019-05-29T06:31:57.664Z,26
2019-05-29T06:32:59.063Z,26
2019-05-29T06:34:00.348Z,26.1
2019-05-29T06:35:01.752Z,26.1
2019-05-29T06:36:03.071Z,26.2
2019-05-29T06:37:04.496Z,26.2
2019-05-29T06:38:08.354Z,26.3
2019-05-29T06:39:09.664Z,26.4
2019-05-29T06:40:10.994Z,26.4
2019-05-29T06:41:12.579Z,26.5
2019-05-29T06:42:13.945Z,26.5
2019-05-29T06:43:18.322Z,26.6
2019-05-29T06:44:19.812Z,26.6
2019-05-29T06:45:21.623Z,26.7
2019-05-29T06:46:24.730Z,26.7
2019-05-29T06:47:29.474Z,26.8
2019-05-29T06:48:44.486Z,26.8
2019-05-29T06:50:00.829Z,27
2019-05-29T06:51:02.421Z,27
2019-05-29T06:52:03.713Z,27
2019-05-29T06:53:12.513Z,27
2019-05-29T06:54:13.909Z,27.1
2019-05-29T06:55:15.279Z,27.1
2019-05-29T06:56:17.355Z,27.1
2019-05-29T06:57:19.254Z,27.2
2019-05-29T06:58:20.574Z,27.3
2019-05-29T06:59:21.958Z,27.3
2019-05-29T07:00:34.677Z,27.3
2019-05-29T07:01:39.376Z,27.4
2019-05-29T07:02:46.450Z,27.4
2019-05-29T07:03:48.327Z,27.4
2019-05-29T07:04:49.899Z,27.5
2019-05-29T07:05:52.741Z,27.5
2019-05-29T07:06:56.381Z,27.5
2019-05-29T07:07:57.687Z,27.6
2019-05-29T07:09:00.397Z,27.6
2019-05-29T07:10:01.744Z,27.7
2019-05-29T07:11:03.087Z,27.7
2019-05-29T07:12:04.489Z,27.8
2019-05-29T07:13:05.779Z,27.8
2019-05-29T07:14:07.393Z,27.8
2019-05-29T07:15:08.829Z,27.9
2019-05-29T07:16:10.143Z,27.9
2019-05-29T07:17:11.514Z,27.9
2019-05-29T07:18:12.835Z,27.9
2019-05-29T07:19:25.496Z,27.9
2019-05-29T07:20:48.097Z,27.9
2019-05-29T07:21:50.591Z,28
2019-05-29T07:22:51.935Z,28
2019-05-29T07:23:57.523Z,28
2019-05-29T07:24:59.251Z,28
2019-05-29T07:26:01.936Z,28.1
2019-05-29T07:27:03.377Z,28.1
2019-05-29T07:28:10.459Z,28.1
2019-05-29T07:29:13.294Z,28.1
2019-05-29T07:30:14.600Z,28.1
2019-05-29T07:31:15.930Z,28.2
2019-05-29T07:32:17.216Z,28.2
2019-05-29T07:33:18.901Z,28.2
2019-05-29T07:34:20.325Z,28.3
2019-05-29T07:35:21.674Z,28.4
2019-05-29T07:36:25.793Z,28.3
2019-05-29T07:37:27.113Z,28.3
2019-05-29T07:38:28.854Z,28.1
2019-05-29T07:39:30.146Z,28.3
2019-05-29T07:40:35.795Z,28.4
2019-05-29T07:41:39.666Z,28.4
2019-05-29T07:42:47.874Z,28.4
2019-05-29T07:43:57.346Z,28.5
2019-05-29T07:45:04.826Z,28.6
2019-05-29T07:46:07.092Z,28.6
2019-05-29T07:47:09.946Z,28.6
2019-05-29T07:48:11.749Z,28.7
2019-05-29T07:49:13.401Z,28.7
2019-05-29T07:50:16.220Z,28.8
2019-05-29T07:51:17.768Z,28.9
2019-05-29T07:52:19.419Z,29
2019-05-29T07:53:20.719Z,29
2019-05-29T07:54:22.086Z,29.1
2019-05-29T07:55:23.814Z,29.2
2019-05-29T07:56:25.222Z,29.1
2019-05-29T07:57:27.712Z,29.1
2019-05-29T07:58:29.006Z,29.2
2019-05-29T07:59:31.456Z,29.2
2019-05-29T08:00:35.456Z,29.2
2019-05-29T08:02:01.662Z,29.2
2019-05-29T08:03:03.037Z,29.1
2019-05-29T08:04:04.353Z,29.3
2019-05-29T08:05:08.778Z,29.4
2019-05-29T08:06:12.586Z,29.3
2019-05-29T08:07:14.405Z,29.3
2019-05-29T08:08:18.758Z,29.3
2019-05-29T08:09:20.357Z,29.3
2019-05-29T08:10:23.838Z,29.4
2019-05-29T08:11:25.412Z,29.4
2019-05-29T08:12:29.206Z,29.3
2019-05-29T08:13:30.538Z,29.2
2019-05-29T08:14:31.845Z,29.2
2019-05-29T08:15:33.624Z,29.1
2019-05-29T08:16:52.728Z,29.2
2019-05-29T08:17:54.094Z,29.1
2019-05-29T08:18:56.784Z,29.2
2019-05-29T08:20:06.389Z,29.2
2019-05-29T08:21:12.156Z,29.3
2019-05-29T08:22:13.852Z,29.3
2019-05-29T08:23:15.161Z,29.3
2019-05-29T08:24:16.460Z,29.4
2019-05-29T08:25:20.904Z,29.4
2019-05-29T08:26:24.154Z,29.4
2019-05-29T08:27:25.484Z,29.5
2019-05-29T08:28:29.214Z,29.5
2019-05-29T08:29:30.822Z,29.5
2019-05-29T08:30:32.133Z,29.5
2019-05-29T08:31:33.487Z,29.6
2019-05-29T08:32:35.112Z,29.6
2019-05-29T08:33:36.480Z,29.6
2019-05-29T08:34:40.539Z,29.6
2019-05-29T08:35:47.070Z,29.7
2019-05-29T08:37:04.714Z,29.6
2019-05-29T08:38:08.356Z,29.7
2019-05-29T08:39:09.796Z,29.7
2019-05-29T08:40:11.444Z,29.6
2019-05-29T08:41:12.928Z,29.7
2019-05-29T08:42:23.711Z,29.8
2019-05-29T08:43:25.756Z,29.8
2019-05-29T08:44:27.322Z,29.8
2019-05-29T08:45:28.638Z,29.9
2019-05-29T08:46:33.400Z,29.8
2019-05-29T08:47:34.972Z,29.9
2019-05-29T08:48:36.298Z,29.8
2019-05-29T08:49:37.620Z,29.8
2019-05-29T08:50:38.986Z,29.8
2019-05-29T08:51:40.297Z,29.8
2019-05-29T08:52:43.818Z,29.8
2019-05-29T08:53:48.681Z,29.9
2019-05-29T08:54:55.520Z,29.8
2019-05-29T08:55:56.892Z,29.8
2019-05-29T08:56:58.214Z,29.7
2019-05-29T08:57:59.865Z,29.8
2019-05-29T08:59:01.182Z,29.8
2019-05-29T09:00:04.182Z,29.7
2019-05-29T09:01:06.232Z,29.8
2019-05-29T09:02:12.804Z,29.7
2019-05-29T09:03:14.320Z,29.6
2019-05-29T09:04:15.706Z,29.5
2019-05-29T09:05:17.020Z,29.5
2019-05-29T09:06:18.413Z,29.4
2019-05-29T09:07:20.035Z,29.6
2019-05-29T09:08:21.568Z,29.5
2019-05-29T09:09:22.902Z,29.4
2019-05-29T09:10:24.198Z,29.4
2019-05-29T09:11:27.701Z,29.3
2019-05-29T09:12:31.429Z,29.3
2019-05-29T09:13:33.223Z,29.3
2019-05-29T09:14:34.598Z,29.3
2019-05-29T09:15:38.312Z,29.2
2019-05-29T09:16:42.668Z,29.2
2019-05-29T09:17:44.064Z,29.4
2019-05-29T09:18:47.932Z,29.4
2019-05-29T09:19:49.368Z,29.4
2019-05-29T09:21:02.455Z,29.3
2019-05-29T09:22:05.300Z,29.3
2019-05-29T09:23:06.732Z,29.4
2019-05-29T09:24:08.122Z,29.3
2019-05-29T09:25:09.480Z,29.3
2019-05-29T09:26:14.718Z,29.2
2019-05-29T09:27:28.099Z,29.2
2019-05-29T09:28:30.948Z,29.4
2019-05-29T09:29:32.327Z,29.4
2019-05-29T09:30:36.299Z,29.4
2019-05-29T09:31:37.632Z,29.3
2019-05-29T09:32:49.937Z,29.3
2019-05-29T09:33:55.090Z,29.3
2019-05-29T09:34:56.526Z,29.2
2019-05-29T09:35:58.100Z,29.2
2019-05-29T09:37:04.729Z,29.2
2019-05-29T09:38:06.425Z,29.2
2019-05-29T09:39:07.774Z,29.2
2019-05-29T09:40:09.400Z,29.2
2019-05-29T09:41:11.215Z,29.2
2019-05-29T09:42:12.524Z,29.1
2019-05-29T09:43:14.823Z,29.1
2019-05-29T09:44:29.197Z,29.1
2019-05-29T09:45:40.682Z,29.1
2019-05-29T09:46:44.607Z,29.1
2019-05-29T09:47:48.834Z,29.1
2019-05-29T09:48:51.703Z,29.1
2019-05-29T09:49:53.289Z,29.1
2019-05-29T09:50:56.689Z,29
2019-05-29T09:52:22.237Z,29
2019-05-29T09:53:23.857Z,29
2019-05-29T09:54:26.647Z,29
2019-05-29T09:55:31.165Z,29
2019-05-29T09:56:32.834Z,29
2019-05-29T09:57:34.398Z,29
2019-05-29T09:58:36.076Z,28.9
2019-05-29T09:59:46.854Z,28.9
2019-05-29T10:01:04.903Z,28.9
2019-05-29T10:02:24.239Z,28.9
2019-05-29T10:03:25.630Z,28.8
2019-05-29T10:04:27.174Z,28.8
2019-05-29T10:05:28.463Z,28.8
2019-05-29T10:06:29.787Z,28.8
2019-05-29T10:07:38.652Z,28.8
2019-05-29T10:08:40.235Z,28.8
2019-05-29T10:09:41.629Z,28.8
2019-05-29T10:10:43.299Z,28.7
2019-05-29T10:11:47.477Z,28.7
2019-05-29T10:12:48.846Z,28.8
2019-05-29T10:13:50.314Z,28.7
2019-05-29T10:14:51.809Z,28.7
2019-05-29T10:15:55.854Z,28.7
2019-05-29T10:17:05.293Z,28.7
2019-05-29T10:19:32.867Z,28.7
2019-05-29T10:20:34.364Z,28.7
2019-05-29T10:21:40.412Z,28.6
2019-05-29T10:22:42.617Z,28.6
2019-05-29T10:23:46.151Z,28.7
2019-05-29T10:24:47.509Z,28.7
2019-05-29T10:25:48.854Z,28.7
2019-05-29T10:26:50.832Z,28.7
2019-05-29T10:27:52.569Z,28.7
2019-05-29T10:29:04.259Z,28.6
2019-05-29T10:30:10.512Z,28.6
2019-05-29T10:31:12.005Z,28.6
2019-05-29T10:32:13.317Z,28.6
2019-05-29T10:33:15.057Z,28.6
2019-05-29T10:34:19.771Z,28.6
2019-05-29T10:35:25.471Z,28.6
2019-05-29T10:36:28.673Z,28.5
2019-05-29T10:37:30.077Z,28.5
2019-05-29T10:38:31.455Z,28.4
2019-05-29T10:39:33.093Z,28.4
2019-05-29T10:40:34.423Z,28.4
2019-05-29T10:41:35.747Z,28.4
2019-05-29T10:42:39.452Z,28.4
2019-05-29T10:43:40.822Z,28.3
2019-05-29T10:44:44.840Z,28.3
2019-05-29T10:45:49.791Z,28.2
2019-05-29T10:46:54.765Z,28.2
2019-05-29T10:47:58.047Z,28.2
2019-05-29T10:48:59.389Z,28.2
2019-05-29T10:50:05.386Z,28.2
2019-05-29T10:51:06.879Z,28.2
2019-05-29T10:52:15.220Z,28.1
2019-05-29T10:53:18.658Z,28.1
2019-05-29T10:54:22.450Z,28.1
2019-05-29T10:55:23.815Z,28.1
2019-05-29T10:56:25.099Z,28.1
2019-05-29T10:57:37.946Z,28.1
2019-05-29T10:58:48.228Z,28
2019-05-29T10:59:57.133Z,28
2019-05-29T11:00:58.495Z,28
2019-05-29T11:02:03.389Z,27.9
2019-05-29T11:03:04.734Z,27.9
2019-05-29T11:04:06.599Z,28
2019-05-29T11:05:07.921Z,28
2019-05-29T11:06:09.273Z,28
2019-05-29T11:07:10.684Z,28
2019-05-29T11:08:11.992Z,27.9
2019-05-29T11:09:14.406Z,27.9
2019-05-29T11:10:16.213Z,27.9
2019-05-29T11:11:17.800Z,27.9
2019-05-29T11:12:19.379Z,27.9
2019-05-29T11:13:21.050Z,27.9
2019-05-29T11:14:22.368Z,27.8
2019-05-29T11:15:26.036Z,27.8
2019-05-29T11:16:27.418Z,27.8
2019-05-29T11:17:28.758Z,27.8
2019-05-29T11:18:32.623Z,27.8
2019-05-29T11:19:34.253Z,27.7
2019-05-29T11:20:36.777Z,27.7
2019-05-29T11:21:40.854Z,27.7
2019-05-29T11:22:42.196Z,27.7
2019-05-29T11:23:43.669Z,27.7
2019-05-29T11:24:44.985Z,27.7
2019-05-29T11:25:48.217Z,27.7
2019-05-29T11:26:52.154Z,27.7
2019-05-29T11:27:56.541Z,27.6
2019-05-29T11:28:59.449Z,27.6
2019-05-29T11:30:00.762Z,27.5
2019-05-29T11:31:05.850Z,27.5
2019-05-29T11:32:08.785Z,27.5
2019-05-29T11:33:10.116Z,27.5
2019-05-29T11:34:11.460Z,27.5
2019-05-29T11:35:12.773Z,27.4
2019-05-29T11:36:14.129Z,27.4
2019-05-29T11:37:15.483Z,27.4
2019-05-29T11:38:20.145Z,27.3
2019-05-29T11:39:21.481Z,27.3
2019-05-29T11:40:22.795Z,27.4
2019-05-29T11:41:31.259Z,27.4
2019-05-29T11:42:33.307Z,27.4
2019-05-29T11:43:35.863Z,27.4
2019-05-29T11:44:37.307Z,27.3
2019-05-29T11:45:38.605Z,27.3
2019-05-29T11:46:41.115Z,27.3
2019-05-29T11:47:42.481Z,27.3
2019-05-29T11:48:46.659Z,27.3
2019-05-29T11:49:48.329Z,27.3
2019-05-29T11:50:52.372Z,27.3
2019-05-29T11:52:14.595Z,27.3
2019-05-29T11:53:26.086Z,27.2
2019-05-29T11:54:27.627Z,27.2
2019-05-29T11:55:28.936Z,27.2
2019-05-29T11:56:30.305Z,27.2
2019-05-29T11:57:40.734Z,27.2
2019-05-29T11:58:45.685Z,27.2
2019-05-29T11:59:49.249Z,27.1
2019-05-29T12:00:50.709Z,27.1
2019-05-29T12:01:52.864Z,27.1
2019-05-29T12:02:57.850Z,27.1
2019-05-29T12:04:17.902Z,27.1
2019-05-29T12:05:27.563Z,27.1
2019-05-29T12:06:28.929Z,27
2019-05-29T12:07:30.342Z,27
2019-05-29T12:08:31.677Z,27
2019-05-29T12:09:33.870Z,27
2019-05-29T12:10:36.346Z,27
2019-05-29T12:11:40.463Z,27
2019-05-29T12:12:49.293Z,27
2019-05-29T12:13:52.064Z,27
2019-05-29T12:15:04.600Z,27
2019-05-29T12:16:15.815Z,27
2019-05-29T12:17:17.139Z,27
2019-05-29T12:18:23.291Z,27
2019-05-29T12:19:25.715Z,26.9
2019-05-29T12:20:28.360Z,26.9
2019-05-29T12:21:30.191Z,26.9
2019-05-29T12:22:34.760Z,26.9
2019-05-29T12:23:36.724Z,26.9
2019-05-29T12:24:38.263Z,26.9
2019-05-29T12:25:39.896Z,26.9
2019-05-29T12:26:41.245Z,26.8
2019-05-29T12:27:42.582Z,26.8
2019-05-29T12:28:43.942Z,26.8
2019-05-29T12:29:45.551Z,26.8
2019-05-29T12:30:46.901Z,26.8
2019-05-29T12:31:48.271Z,26.8
2019-05-29T12:32:52.760Z,26.8
2019-05-29T12:34:03.455Z,26.8
2019-05-29T12:35:25.144Z,26.8
2019-05-29T12:36:29.357Z,26.8
2019-05-29T12:37:30.661Z,26.8
2019-05-29T12:38:32.257Z,26.7
2019-05-29T12:39:33.609Z,26.7
2019-05-29T12:40:34.945Z,26.7
2019-05-29T12:41:36.328Z,26.7
2019-05-29T12:42:37.745Z,26.7
2019-05-29T12:43:39.108Z,26.7
2019-05-29T12:44:40.449Z,26.7
2019-05-29T12:45:44.440Z,26.6
2019-05-29T12:46:48.228Z,26.6
2019-05-29T12:47:50.989Z,26.6
2019-05-29T12:48:53.313Z,26.6
2019-05-29T12:49:56.050Z,26.6
2019-05-29T12:51:00.083Z,26.6
2019-05-29T12:52:07.088Z,26.6
2019-05-29T12:53:10.032Z,26.6
2019-05-29T12:54:30.209Z,26.5
2019-05-29T12:55:33.050Z,26.5
2019-05-29T12:56:43.167Z,26.4
2019-05-29T12:57:44.633Z,26.2
2019-05-29T12:58:45.993Z,26.4
2019-05-29T12:59:47.572Z,26.4
2019-05-29T13:00:48.891Z,26.4
2019-05-29T13:01:50.252Z,26.4
2019-05-29T13:02:51.583Z,26.4
2019-05-29T13:03:54.208Z,26.4
2019-05-29T13:05:08.211Z,26.3
2019-05-29T13:06:20.558Z,26.3
2019-05-29T13:07:24.271Z,26.3
2019-05-29T13:08:25.727Z,26.3
2019-05-29T13:09:30.159Z,26.3
2019-05-29T13:10:31.586Z,26.2
2019-05-29T13:11:33.154Z,26.3
2019-05-29T13:12:34.455Z,26.3
2019-05-29T13:13:37.696Z,26.3
2019-05-29T13:14:39.082Z,26.2
2019-05-29T13:15:43.091Z,26.2
2019-05-29T13:16:44.642Z,26.2
2019-05-29T13:17:45.950Z,26.2
2019-05-29T13:18:47.612Z,26.2
2019-05-29T13:19:48.979Z,26.2
2019-05-29T13:20:50.384Z,26.2
2019-05-29T13:21:51.735Z,26.1
2019-05-29T13:22:53.428Z,26.1
2019-05-29T13:23:59.573Z,26.1
2019-05-29T13:25:05.454Z,26.1
2019-05-29T13:26:06.840Z,26.1
2019-05-29T13:27:10.891Z,26
2019-05-29T13:28:12.216Z,26.1
2019-05-29T13:29:16.452Z,26.1
2019-05-29T13:30:19.389Z,26
2019-05-29T13:31:29.971Z,26
2019-05-29T13:32:31.333Z,26
2019-05-29T13:33:33.038Z,26
2019-05-29T13:34:34.720Z,26
2019-05-29T13:35:38.856Z,26
2019-05-29T13:36:40.235Z,26
2019-05-29T13:37:42.373Z,26
2019-05-29T13:38:44.990Z,26
2019-05-29T13:39:46.610Z,26
2019-05-29T13:40:48.047Z,26
2019-05-29T13:41:49.467Z,26
2019-05-29T13:42:52.034Z,26
2019-05-29T13:43:54.588Z,25.9
2019-05-29T13:45:04.960Z,25.9
2019-05-29T13:46:18.826Z,25.9
2019-05-29T13:47:21.405Z,25.9
2019-05-29T13:48:23.446Z,25.9
2019-05-29T13:49:25.077Z,25.9
2019-05-29T13:50:26.430Z,25.9
2019-05-29T13:51:27.756Z,25.9
2019-05-29T13:52:32.378Z,25.9
2019-05-29T13:53:35.074Z,25.9
2019-05-29T13:54:36.487Z,25.9
2019-05-29T13:55:41.212Z,25.9
2019-05-29T13:56:42.859Z,25.9
2019-05-29T13:57:45.087Z,25.9
2019-05-29T13:58:49.499Z,25.8
2019-05-29T13:59:53.931Z,25.9
2019-05-29T14:00:58.322Z,25.8
2019-05-29T14:02:04.637Z,25.8
2019-05-29T14:03:09.434Z,25.8
2019-05-29T14:04:10.808Z,25.8
2019-05-29T14:05:14.083Z,25.8
2019-05-29T14:06:15.506Z,25.8
2019-05-29T14:07:17.082Z,25.8